map of DLG home
DLG - Airport
Location
City:  Dillingham, Alaska, United States
ICAO:PADL
IATA:DLG
FAA LID:DLG

Details
Type:Airport (Part 139 Class I)
Use:Public/Civil
Latitude:5902'41"N (59.044667)
Longitude:15830'20"W (-158.505499)
Datum:WGS 1984
Elevation:82 ft (25 m)
Variation:12.44E (WMM2015 magnetic declination)
-0.29 annual change
Runways:1
Longest:6400 × 150 ft (1951 × 45.5 m), paved

Time
Time Zone:UTC-9 (DST-8)
Local Time:

Weather
METAR:PADL 220206Z 01013KT 1SM -SN BR OVC017 M10/M12 A2945
TAF:PADL 220330Z 2204/2224 36013G21KT 1SM -SN BR OVC015 WS015/12030KT
FM220600 03012KT 4SM -SN BR OVC015 WS015/12035KT
FM220900 02014G22KT P6SM OVC025
FM222100 03015G25KT 4SM -SN SCT010 OVC020
AMD NOT SKED

Related Locations
Nearby:
Farthest:FAAF: 10751 mi / 17303 km
Struisbaai [Andrew's Field Airport], WC, ZA

Find:

   beyond  
but within

Other Information
Maps:
NOTAMs:
Links:
Sources:

  
  • flag of United States
  • flag of Alaska
  

Sectional Chart

Flight Planning
at skyvector.com

Satellite Image

Google Maps Satellite view

 

Copyright © 2004-2019 Karl L. Swartz. All rights reserved.
The Great Circle Mapper name and logo are trademarks of the Great Circle Mapper.
All other trademarks mentioned herein belong to their respective owners.
Please see credits for attibutions and further copyright information.

  Follow gcmap on Facebook Follow gcmap on Twitter Follow gcmap on Google+ GCmap on LinkedIn

hCard Microformat

Geo Microformat